Time;durP1;ratioP1;P1;durP2;ratioP2;P2;SDS_P1;SDS_P2;PMS_P1;PMS_P2;Temp;Humidity;BMP_temperature;BMP_pressure;BME280_temperature;BME280_humidity;BME280_pressure;Samples;Min_cycle;Max_cycle;Signal;HPM_P1;HPM_P2
2022/07/31 00:00:35;;;;;;;5.03;4.33;;;;;;;;;;4996069;28;20178;-88
2022/07/31 00:03:39;;;;;;;4.93;4.03;;;;;;;;;;4984423;28;20221;-88
2022/07/31 00:06:43;;;;;;;7.03;3.80;;;;;;;;;;4973566;28;20178;-88
2022/07/31 00:09:47;;;;;;;4.43;4.03;;;;;;;;;;4984991;28;20174;-89
2022/07/31 00:12:51;;;;;;;6.17;4.80;;;;;;;;;;4984518;28;20217;-88
2022/07/31 00:15:55;;;;;;;5.57;4.83;;;;;;;;;;4995917;28;20186;-88
2022/07/31 00:19:00;;;;;;;5.00;4.50;;;;;;;;;;4984567;28;20186;-88
2022/07/31 00:22:04;;;;;;;5.30;4.40;;;;;;;;;;4985026;28;20183;-89
2022/07/31 00:25:09;;;;;;;4.47;4.07;;;;;;;;;;4973405;28;20530;-88
2022/07/31 00:28:13;;;;;;;5.73;4.10;;;;;;;;;;4973055;28;20198;-87
2022/07/31 00:31:18;;;;;;;5.23;4.60;;;;;;;;;;4973339;28;20522;-88
2022/07/31 00:34:22;;;;;;;4.90;4.40;;;;;;;;;;4972999;28;20213;-88
2022/07/31 00:37:26;;;;;;;7.77;4.40;;;;;;;;;;4984772;28;20182;-88
2022/07/31 00:40:30;;;;;;;6.67;5.20;;;;;;;;;;4984279;28;20198;-88
2022/07/31 00:43:34;;;;;;;5.43;5.00;;;;;;;;;;4984070;28;20230;-88
2022/07/31 00:46:40;;;;;;;6.83;4.73;;;;;;;;;;4995298;28;20191;-88
2022/07/31 00:49:45;;;;;;;5.30;4.30;;;;;;;;;;4984045;28;20182;-88
2022/07/31 00:52:50;;;;;;;5.37;4.37;;;;;;;;;;4972902;28;20233;-88
2022/07/31 00:55:56;;;;;;;5.30;4.80;;;;;;;;;;4972618;28;20194;-88
2022/07/31 00:59:01;;;;;;;4.73;4.33;;;;;;;;;;4984773;28;20344;-88
2022/07/31 01:02:09;;;;;;;4.67;4.20;;;;;;;;;;4985354;28;20182;-88
2022/07/31 01:05:13;;;;;;;5.20;4.70;;;;;;;;;;4985293;28;20198;-88
2022/07/31 01:08:17;;;;;;;5.47;4.67;;;;;;;;;;4985568;28;20186;-88
2022/07/31 01:11:27;;;;;;;5.70;4.70;;;;;;;;;;4974459;28;20186;-88
2022/07/31 01:14:37;;;;;;;4.60;4.20;;;;;;;;;;4985313;28;20217;-88
2022/07/31 01:17:44;;;;;;;6.37;4.50;;;;;;;;;;4973035;28;20187;-88
2022/07/31 01:20:49;;;;;;;4.97;4.47;;;;;;;;;;4984083;28;20186;-88
2022/07/31 01:23:59;;;;;;;4.83;4.30;;;;;;;;;;4982932;28;20226;-88
2022/07/31 01:27:55;;;;;;;5.20;4.70;;;;;;;;;;4983546;28;20190;-88
2022/07/31 01:31:06;;;;;;;4.93;4.40;;;;;;;;;;4983189;28;20187;-88
2022/07/31 01:34:44;;;;;;;7.27;4.67;;;;;;;;;;4982621;28;20214;-87
2022/07/31 01:38:07;;;;;;;5.53;4.80;;;;;;;;;;4983196;28;20182;-87
2022/07/31 01:41:15;;;;;;;5.27;4.77;;;;;;;;;;4983190;28;20290;-87
2022/07/31 01:44:23;;;;;;;6.53;4.87;;;;;;;;;;4971892;28;20226;-87
2022/07/31 01:47:29;;;;;;;5.70;4.83;;;;;;;;;;4982733;28;20186;-87
2022/07/31 01:50:35;;;;;;;5.17;4.57;;;;;;;;;;4994087;28;20186;-87
2022/07/31 01:53:44;;;;;;;6.60;5.13;;;;;;;;;;4982712;28;20214;-88
2022/07/31 01:56:48;;;;;;;5.77;5.17;;;;;;;;;;4983443;28;20178;-87
2022/07/31 01:59:57;;;;;;;5.63;5.03;;;;;;;;;;4982860;28;20178;-88
2022/07/31 02:03:21;;;;;;;10.93;9.83;;;;;;;;;;4985385;28;20230;-88
2022/07/31 02:06:25;;;;;;;9.77;8.87;;;;;;;;;;4982943;28;20205;-88
2022/07/31 02:09:32;;;;;;;9.77;8.77;;;;;;;;;;4983097;28;20182;-88
2022/07/31 02:12:37;;;;;;;9.33;8.37;;;;;;;;;;4971825;28;20218;-88
2022/07/31 02:15:41;;;;;;;9.30;8.27;;;;;;;;;;4994382;28;20179;-88
2022/07/31 02:18:49;;;;;;;7.73;7.03;;;;;;;;;;4994403;28;20178;-88
2022/07/31 02:22:00;;;;;;;7.07;6.37;;;;;;;;;;4982862;28;20629;-87
2022/07/31 02:25:05;;;;;;;6.37;5.77;;;;;;;;;;4982992;28;20210;-88
2022/07/31 02:28:15;;;;;;;6.90;5.43;;;;;;;;;;4982637;28;20186;-88
2022/07/31 02:31:21;;;;;;;8.20;5.60;;;;;;;;;;4982829;28;20182;-88
2022/07/31 02:34:27;;;;;;;6.40;5.80;;;;;;;;;;4993682;28;20210;-88
2022/07/31 02:37:35;;;;;;;8.00;6.60;;;;;;;;;;4983098;28;20182;-88
2022/07/31 02:40:40;;;;;;;7.30;6.60;;;;;;;;;;4971885;28;20182;-88
2022/07/31 02:43:45;;;;;;;7.80;6.40;;;;;;;;;;4973490;28;20225;-88
2022/07/31 02:47:01;;;;;;;6.60;6.00;;;;;;;;;;4976739;28;20186;-88
2022/07/31 02:50:07;;;;;;;6.83;5.90;;;;;;;;;;4997731;28;20178;-88
2022/07/31 02:53:12;;;;;;;6.07;5.27;;;;;;;;;;4986489;28;20688;-87
2022/07/31 02:56:17;;;;;;;5.87;5.30;;;;;;;;;;4975487;28;20178;-88
2022/07/31 02:59:22;;;;;;;6.30;5.73;;;;;;;;;;4986392;28;20202;-88
2022/07/31 03:02:36;;;;;;;8.37;6.03;;;;;;;;;;4986328;28;20218;-88
2022/07/31 03:05:40;;;;;;;6.77;6.17;;;;;;;;;;4986509;28;20179;-88
2022/07/31 03:08:44;;;;;;;6.93;5.87;;;;;;;;;;4986764;28;20186;-88
2022/07/31 03:11:51;;;;;;;6.27;5.67;;;;;;;;;;4986416;28;20182;-88
2022/07/31 03:14:56;;;;;;;5.90;5.40;;;;;;;;;;4975089;28;20170;-88
2022/07/31 03:18:02;;;;;;;6.33;5.73;;;;;;;;;;4986582;28;20178;-88
2022/07/31 03:21:12;;;;;;;6.47;5.87;;;;;;;;;;4975634;28;20657;-89
2022/07/31 03:24:17;;;;;;;6.23;5.60;;;;;;;;;;4985730;28;20222;-88
2022/07/31 03:27:21;;;;;;;6.47;5.70;;;;;;;;;;4975065;28;20186;-88
2022/07/31 03:30:25;;;;;;;6.43;5.83;;;;;;;;;;4985457;28;20197;-88
2022/07/31 03:33:32;;;;;;;8.20;6.37;;;;;;;;;;4996995;28;20713;-88
2022/07/31 03:36:38;;;;;;;9.30;6.00;;;;;;;;;;4985860;28;20194;-88
2022/07/31 03:39:42;;;;;;;6.60;5.67;;;;;;;;;;4974828;28;20621;-88
2022/07/31 03:42:49;;;;;;;6.47;5.87;;;;;;;;;;4985508;28;20558;-88
2022/07/31 03:45:53;;;;;;;8.00;6.10;;;;;;;;;;4996627;28;20174;-88
2022/07/31 03:48:58;;;;;;;6.53;5.83;;;;;;;;;;4985727;28;20186;-88
2022/07/31 03:52:05;;;;;;;6.20;5.60;;;;;;;;;;4974875;28;20186;-88
2022/07/31 03:55:09;;;;;;;6.53;5.83;;;;;;;;;;4974228;28;20190;-88
2022/07/31 03:58:13;;;;;;;6.43;5.83;;;;;;;;;;4985412;28;20202;-88
2022/07/31 04:01:18;;;;;;;7.73;5.80;;;;;;;;;;4984967;28;20198;-88
2022/07/31 04:04:22;;;;;;;7.83;4.93;;;;;;;;;;4984683;28;20229;-88
2022/07/31 04:07:38;;;;;;;5.70;5.20;;;;;;;;;;4975270;28;20186;-88
2022/07/31 04:10:42;;;;;;;6.40;5.80;;;;;;;;;;4973288;28;20186;-87
2022/07/31 04:13:50;;;;;;;7.60;5.30;;;;;;;;;;4984292;28;20218;-87
2022/07/31 04:16:54;;;;;;;7.63;6.00;;;;;;;;;;4973400;28;20178;-87
2022/07/31 04:19:58;;;;;;;6.70;5.47;;;;;;;;;;4973121;28;20202;-87
2022/07/31 04:23:03;;;;;;;5.90;5.40;;;;;;;;;;4994897;28;20218;-87
2022/07/31 04:26:33;;;;;;;6.00;5.40;;;;;;;;;;4995496;28;20190;-87
2022/07/31 04:29:39;;;;;;;5.77;5.27;;;;;;;;;;4983883;28;20202;-87
2022/07/31 04:32:43;;;;;;;6.97;5.20;;;;;;;;;;4984045;28;20218;-87
2022/07/31 04:35:51;;;;;;;8.20;6.23;;;;;;;;;;4983892;28;20179;-88
2022/07/31 04:38:55;;;;;;;6.73;5.60;;;;;;;;;;4995091;28;20182;-87
2022/07/31 04:42:00;;;;;;;6.23;5.47;;;;;;;;;;4972964;28;20191;-87
2022/07/31 04:45:04;;;;;;;6.87;5.63;;;;;;;;;;4984024;28;20210;-87
2022/07/31 04:48:09;;;;;;;6.73;5.40;;;;;;;;;;4994903;28;20182;-87
2022/07/31 04:51:21;;;;;;;7.10;5.43;;;;;;;;;;4984006;28;20217;-88
2022/07/31 04:54:26;;;;;;;5.93;4.90;;;;;;;;;;4983208;28;20222;-88
2022/07/31 04:57:30;;;;;;;5.87;5.27;;;;;;;;;;4994536;28;20198;-88
2022/07/31 05:00:34;;;;;;;7.83;5.50;;;;;;;;;;4983596;28;20182;-88
2022/07/31 05:03:38;;;;;;;5.77;5.27;;;;;;;;;;4983080;28;20221;-88
2022/07/31 05:06:45;;;;;;;6.63;5.13;;;;;;;;;;4982865;28;20680;-87
2022/07/31 05:09:49;;;;;;;7.03;5.10;;;;;;;;;;4972723;28;20186;-87
2022/07/31 05:12:53;;;;;;;6.50;5.53;;;;;;;;;;4983621;28;20688;-88
2022/07/31 05:15:57;;;;;;;6.80;5.47;;;;;;;;;;4983472;28;20633;-87
2022/07/31 05:19:02;;;;;;;5.90;5.30;;;;;;;;;;4972437;28;20182;-88
2022/07/31 05:22:18;;;;;;;8.53;5.77;;;;;;;;;;4994738;28;20183;-87
2022/07/31 05:25:40;;;;;;;5.80;5.20;;;;;;;;;;4994239;28;20206;-88
2022/07/31 05:28:48;;;;;;;6.07;5.43;;;;;;;;;;4972013;28;20201;-87
2022/07/31 05:31:52;;;;;;;6.00;5.40;;;;;;;;;;4983604;28;20543;-87
2022/07/31 05:34:56;;;;;;;5.70;5.10;;;;;;;;;;4983533;28;20174;-88
2022/07/31 05:38:00;;;;;;;5.80;5.20;;;;;;;;;;4983311;28;20634;-88
2022/07/31 05:41:23;;;;;;;5.57;5.03;;;;;;;;;;4983782;28;20191;-88
2022/07/31 05:44:39;;;;;;;6.77;5.20;;;;;;;;;;4973383;28;20210;-88
2022/07/31 05:47:43;;;;;;;5.80;5.30;;;;;;;;;;4994001;28;20206;-88
2022/07/31 05:50:48;;;;;;;5.77;5.13;;;;;;;;;;4983434;28;20186;-88
2022/07/31 05:53:52;;;;;;;6.03;5.43;;;;;;;;;;4972006;28;20210;-88
2022/07/31 05:57:14;;;;;;;7.97;5.00;;;;;;;;;;4994020;28;20186;-86
2022/07/31 06:00:19;;;;;;;5.57;5.07;;;;;;;;;;4982361;28;20201;-86
2022/07/31 06:03:26;;;;;;;6.00;4.90;;;;;;;;;;4982593;28;20226;-86
2022/07/31 06:06:43;;;;;;;7.73;4.60;;;;;;;;;;4982967;28;20262;-86
2022/07/31 06:09:48;;;;;;;8.03;4.70;;;;;;;;;;4982486;28;20178;-86
2022/07/31 06:12:53;;;;;;;7.37;5.07;;;;;;;;;;4982538;28;20222;-87
2022/07/31 06:15:57;;;;;;;7.80;4.87;;;;;;;;;;4982764;28;20522;-86
2022/07/31 06:19:01;;;;;;;5.80;5.20;;;;;;;;;;4985010;28;20186;-86
2022/07/31 06:22:06;;;;;;;5.73;4.40;;;;;;;;;;4975531;28;20625;-86
2022/07/31 06:25:11;;;;;;;5.97;5.13;;;;;;;;;;4986434;28;20205;-86
2022/07/31 06:28:15;;;;;;;9.23;4.87;;;;;;;;;;4986672;28;20182;-87
2022/07/31 06:31:21;;;;;;;5.80;4.60;;;;;;;;;;4974937;28;20542;-86
2022/07/31 06:34:25;;;;;;;4.93;4.53;;;;;;;;;;4985728;28;20222;-87
2022/07/31 06:37:29;;;;;;;4.67;4.23;;;;;;;;;;4997304;28;20186;-86
2022/07/31 06:40:34;;;;;;;5.50;4.70;;;;;;;;;;4996977;28;20530;-86
2022/07/31 06:44:02;;;;;;;6.27;4.50;;;;;;;;;;4997498;28;20222;-86
2022/07/31 06:47:25;;;;;;;7.13;5.33;;;;;;;;;;4988715;28;20178;-87
2022/07/31 06:50:48;;;;;;;6.37;5.13;;;;;;;;;;4986736;28;20179;-87
2022/07/31 06:54:05;;;;;;;7.33;5.17;;;;;;;;;;4987377;28;20222;-87
2022/07/31 06:57:11;;;;;;;5.87;4.73;;;;;;;;;;4986494;28;20174;-88
2022/07/31 07:00:16;;;;;;;8.83;5.83;;;;;;;;;;4977565;28;20178;-87
2022/07/31 07:03:21;;;;;;;10.70;7.87;;;;;;;;;;5019153;28;20221;-87
2022/07/31 07:06:25;;;;;;;6.07;5.17;;;;;;;;;;4993869;28;20213;-87
2022/07/31 07:09:29;;;;;;;11.03;6.83;;;;;;;;;;5008163;28;20182;-86
2022/07/31 07:12:34;;;;;;;8.27;5.07;;;;;;;;;;4995491;28;20217;-86
2022/07/31 07:15:38;;;;;;;8.67;5.50;;;;;;;;;;4998227;28;20175;-89
2022/07/31 07:18:43;;;;;;;7.23;5.30;;;;;;;;;;4981196;28;20191;-86
2022/07/31 07:21:47;;;;;;;5.87;4.80;;;;;;;;;;5019468;28;20182;-86
2022/07/31 07:24:51;;;;;;;5.23;4.67;;;;;;;;;;4996867;28;20210;-86
2022/07/31 07:27:59;;;;;;;9.87;5.27;;;;;;;;;;4997254;28;20182;-86
2022/07/31 07:31:04;;;;;;;7.80;4.60;;;;;;;;;;4997602;28;20668;-85
2022/07/31 07:34:09;;;;;;;8.53;7.33;;;;;;;;;;5002186;28;20218;-86
2022/07/31 07:37:13;;;;;;;28.17;14.50;;;;;;;;;;5003045;28;20178;-88
2022/07/31 07:40:19;;;;;;;14.73;6.03;;;;;;;;;;4996897;28;20192;-87
2022/07/31 07:43:23;;;;;;;9.73;5.80;;;;;;;;;;4988018;28;20654;-89
2022/07/31 07:46:29;;;;;;;4.90;4.40;;;;;;;;;;4999914;28;20567;-87
2022/07/31 07:49:35;;;;;;;5.43;4.57;;;;;;;;;;4980077;28;20631;-88
2022/07/31 07:52:58;;;;;;;6.80;4.73;;;;;;;;;;5012766;28;20687;-88
2022/07/31 07:56:25;;;;;;;7.90;4.97;;;;;;;;;;4990760;28;20183;-88
2022/07/31 08:00:00;;;;;;;11.97;4.20;;;;;;;;;;4988755;28;20661;-88
2022/07/31 08:03:29;;;;;;;5.33;4.30;;;;;;;;;;4984664;28;20239;-86
2022/07/31 08:06:33;;;;;;;5.10;4.60;;;;;;;;;;4997227;28;20222;-87
2022/07/31 08:09:37;;;;;;;5.07;4.30;;;;;;;;;;4988165;28;20190;-86
2022/07/31 08:13:06;;;;;;;4.90;4.10;;;;;;;;;;4977551;28;20224;-86
2022/07/31 08:16:42;;;;;;;8.87;4.70;;;;;;;;;;4989550;28;20176;-86
2022/07/31 08:19:46;;;;;;;6.37;4.70;;;;;;;;;;4986729;28;20627;-87
2022/07/31 08:22:51;;;;;;;6.83;4.30;;;;;;;;;;5002496;28;20222;-87
2022/07/31 08:25:55;;;;;;;4.70;4.20;;;;;;;;;;4986510;28;20212;-87
2022/07/31 08:28:58;;;;;;;5.65;4.38;;;;;;;;;;4976496;28;20516;-88
2022/07/31 08:32:05;;;;;;;5.82;3.85;;;;;;;;;;4986406;28;20199;-88
2022/07/31 08:35:38;;;;;;;5.18;3.25;;;;;;;;;;4993723;28;20188;-88
2022/07/31 08:39:37;;;;;;;9.13;3.50;;;;;;;;;;4984071;28;20180;-88
2022/07/31 08:43:30;;;;;;;4.25;3.20;;;;;;;;;;5000388;28;20556;-86
2022/07/31 08:48:15;;;;;;;6.22;3.17;;;;;;;;;;4996543;28;20197;-86
2022/07/31 09:03:09;;;;;;;3.00;2.30;;;;;;;;;;4999612;28;20177;-88
2022/07/31 09:06:48;;;;;;;4.30;2.60;;;;;;;;;;4997304;28;20205;-89
2022/07/31 09:09:53;;;;;;;4.40;3.20;;;;;;;;;;5006080;28;20186;-89
2022/07/31 09:12:58;;;;;;;3.22;2.42;;;;;;;;;;4997068;28;20697;-89
2022/07/31 09:16:04;;;;;;;6.15;2.53;;;;;;;;;;4997442;28;20194;-88
2022/07/31 09:19:09;;;;;;;4.95;2.40;;;;;;;;;;4984967;28;20186;-89
2022/07/31 09:22:24;;;;;;;3.13;2.42;;;;;;;;;;4986102;28;20537;-87
2022/07/31 09:25:28;;;;;;;3.33;2.22;;;;;;;;;;4995539;28;20217;-88
2022/07/31 09:28:51;;;;;;;5.05;2.40;;;;;;;;;;4985609;28;20198;-88
2022/07/31 09:32:11;;;;;;;2.50;2.30;;;;;;;;;;4992180;28;20198;-88
2022/07/31 09:35:38;;;;;;;5.35;2.70;;;;;;;;;;4993911;28;20179;-88
2022/07/31 09:38:43;;;;;;;2.38;2.08;;;;;;;;;;4990795;28;20197;-91
2022/07/31 09:41:59;;;;;;;5.65;2.05;;;;;;;;;;5004704;28;20658;-89
2022/07/31 09:45:22;;;;;;;4.28;2.13;;;;;;;;;;4987918;28;20536;-89
2022/07/31 09:48:29;;;;;;;3.70;2.15;;;;;;;;;;4987736;28;20178;-88
2022/07/31 09:51:41;;;;;;;2.83;2.40;;;;;;;;;;4987938;28;20179;-89
2022/07/31 09:54:47;;;;;;;2.88;2.30;;;;;;;;;;4991599;28;20642;-89
2022/07/31 09:58:05;;;;;;;2.17;1.77;;;;;;;;;;5004598;28;20183;-89
2022/07/31 10:01:18;;;;;;;2.08;1.63;;;;;;;;;;4985936;28;20537;-89
2022/07/31 10:04:23;;;;;;;4.35;1.70;;;;;;;;;;4993018;28;20221;-90
2022/07/31 10:07:34;;;;;;;4.28;1.55;;;;;;;;;;5015391;23;20230;-82
2022/07/31 10:10:47;;;;;;;3.40;1.98;;;;;;;;;;4999769;28;20227;-81
2022/07/31 10:14:04;;;;;;;2.85;1.52;;;;;;;;;;5003715;28;20191;-82
2022/07/31 10:17:11;;;;;;;3.95;1.55;;;;;;;;;;5001587;28;20541;-82
2022/07/31 10:20:33;;;;;;;2.78;1.88;;;;;;;;;;5000163;28;20187;-82
2022/07/31 10:23:58;;;;;;;2.30;1.70;;;;;;;;;;4983549;28;20203;-81
2022/07/31 10:27:03;;;;;;;5.05;1.85;;;;;;;;;;4983701;28;20218;-81
2022/07/31 10:30:09;;;;;;;4.03;1.60;;;;;;;;;;5011062;28;20202;-82
2022/07/31 10:33:19;;;;;;;3.35;1.70;;;;;;;;;;5000742;28;20203;-81
2022/07/31 10:36:44;;;;;;;2.33;1.63;;;;;;;;;;4999777;28;20199;-81
2022/07/31 10:40:11;;;;;;;5.22;1.58;;;;;;;;;;4996694;28;20203;-81
2022/07/31 10:43:36;;;;;;;2.10;1.40;;;;;;;;;;4998667;28;20183;-82
2022/07/31 10:47:14;;;;;;;2.42;1.50;;;;;;;;;;4993097;28;20210;-82
2022/07/31 10:50:37;;;;;;;4.00;1.40;;;;;;;;;;4985791;28;20230;-83
2022/07/31 10:53:59;;;;;;;2.85;1.60;;;;;;;;;;5000369;28;20183;-82
2022/07/31 10:57:26;;;;;;;5.43;1.60;;;;;;;;;;4999559;28;20203;-82
2022/07/31 11:01:07;;;;;;;3.55;1.70;;;;;;;;;;4997174;28;20221;-83
2022/07/31 11:04:36;;;;;;;2.05;1.40;;;;;;;;;;4993817;28;20559;-81
2022/07/31 11:08:18;;;;;;;1.70;1.50;;;;;;;;;;4995677;28;20202;-80
2022/07/31 11:11:35;;;;;;;1.25;1.10;;;;;;;;;;4998357;28;20218;-82
2022/07/31 11:14:58;;;;;;;2.10;1.60;;;;;;;;;;5000612;28;20179;-82
2022/07/31 11:18:19;;;;;;;3.08;1.80;;;;;;;;;;5000441;28;20178;-82
2022/07/31 11:21:35;;;;;;;2.25;1.45;;;;;;;;;;5000370;28;20218;-83
2022/07/31 11:24:40;;;;;;;1.40;1.20;;;;;;;;;;5019524;28;20186;-82
2022/07/31 11:27:44;;;;;;;1.55;1.40;;;;;;;;;;5015387;28;20562;-82
2022/07/31 11:30:55;;;;;;;6.38;1.70;;;;;;;;;;5007245;28;20229;-82
2022/07/31 11:34:02;;;;;;;1.75;1.23;;;;;;;;;;5019142;28;20187;-82
2022/07/31 11:37:06;;;;;;;2.33;1.30;;;;;;;;;;4995582;28;20183;-82
2022/07/31 11:40:11;;;;;;;2.63;1.40;;;;;;;;;;5007699;28;20183;-82
2022/07/31 11:43:15;;;;;;;1.33;1.23;;;;;;;;;;5019283;28;20187;-82
2022/07/31 11:46:28;;;;;;;2.45;1.40;;;;;;;;;;5006117;28;20206;-84
2022/07/31 11:49:34;;;;;;;3.55;1.33;;;;;;;;;;4999393;28;20195;-82
2022/07/31 11:52:42;;;;;;;2.17;1.60;;;;;;;;;;4999394;28;20569;-83
2022/07/31 11:55:49;;;;;;;2.80;1.50;;;;;;;;;;5000252;28;20521;-82
2022/07/31 11:58:57;;;;;;;2.40;1.60;;;;;;;;;;4999226;28;20530;-81
2022/07/31 12:02:12;;;;;;;3.13;1.52;;;;;;;;;;4997286;28;20222;-80
2022/07/31 12:05:16;;;;;;;3.47;1.80;;;;;;;;;;5010019;28;20198;-82
2022/07/31 12:08:22;;;;;;;3.17;1.40;;;;;;;;;;5001525;28;20187;-82
2022/07/31 12:11:26;;;;;;;2.65;1.50;;;;;;;;;;4988839;28;20226;-82
2022/07/31 12:14:35;;;;;;;2.65;1.70;;;;;;;;;;4978849;28;20183;-81
2022/07/31 12:17:39;;;;;;;1.67;1.50;;;;;;;;;;4985744;28;20178;-80
2022/07/31 12:21:10;;;;;;;1.48;1.38;;;;;;;;;;4993488;28;20222;-81
2022/07/31 12:24:15;;;;;;;2.28;1.42;;;;;;;;;;4994388;28;20525;-81
2022/07/31 12:27:19;;;;;;;2.47;1.60;;;;;;;;;;4998392;28;20203;-79
2022/07/31 12:30:23;;;;;;;1.60;1.50;;;;;;;;;;5002783;28;20198;-78
2022/07/31 12:33:27;;;;;;;2.10;1.38;;;;;;;;;;5012975;28;20194;-78
2022/07/31 12:36:31;;;;;;;2.10;1.52;;;;;;;;;;5001953;28;20520;-79
2022/07/31 12:39:53;;;;;;;2.85;1.45;;;;;;;;;;4990962;28;20195;-78
2022/07/31 12:42:58;;;;;;;2.13;1.33;;;;;;;;;;4997160;28;20183;-79
2022/07/31 12:46:05;;;;;;;6.15;1.30;;;;;;;;;;4999819;28;20190;-79
2022/07/31 12:49:09;;;;;;;1.58;1.10;;;;;;;;;;5014382;28;20545;-81
2022/07/31 12:52:14;;;;;;;2.10;1.40;;;;;;;;;;5003212;28;20218;-81
2022/07/31 12:55:18;;;;;;;2.13;1.30;;;;;;;;;;5012700;28;20182;-81
2022/07/31 12:58:23;;;;;;;1.30;1.17;;;;;;;;;;5013404;28;20179;-81
2022/07/31 13:01:28;;;;;;;1.35;1.17;;;;;;;;;;5004780;28;20218;-81
2022/07/31 13:04:32;;;;;;;1.42;1.20;;;;;;;;;;5013516;28;20187;-82
2022/07/31 13:07:36;;;;;;;2.75;1.50;;;;;;;;;;5002856;28;20218;-81
2022/07/31 13:10:40;;;;;;;2.33;1.17;;;;;;;;;;5004533;28;20225;-81
2022/07/31 13:13:45;;;;;;;1.80;1.27;;;;;;;;;;4990601;28;20179;-82
2022/07/31 13:16:51;;;;;;;1.25;1.15;;;;;;;;;;5002565;28;20187;-81
2022/07/31 13:19:56;;;;;;;1.52;1.17;;;;;;;;;;4992084;28;20194;-82
2022/07/31 13:23:01;;;;;;;1.67;1.10;;;;;;;;;;5002290;28;20186;-82
2022/07/31 13:26:05;;;;;;;1.95;0.90;;;;;;;;;;4992308;28;20182;-81
2022/07/31 13:29:10;;;;;;;3.10;1.00;;;;;;;;;;5013130;28;20175;-80
2022/07/31 13:32:15;;;;;;;2.08;1.33;;;;;;;;;;5011921;28;20218;-81
2022/07/31 13:35:20;;;;;;;3.13;1.25;;;;;;;;;;5002269;28;20178;-81
2022/07/31 13:38:24;;;;;;;1.85;1.27;;;;;;;;;;5013821;28;20673;-80
2022/07/31 13:41:30;;;;;;;1.58;1.00;;;;;;;;;;5012747;28;20222;-81
2022/07/31 13:44:33;;;;;;;2.33;1.05;;;;;;;;;;5001684;28;20178;-80
2022/07/31 13:47:38;;;;;;;1.00;0.90;;;;;;;;;;5013617;28;20210;-84
2022/07/31 13:50:42;;;;;;;1.35;1.00;;;;;;;;;;4995995;28;20231;-84
2022/07/31 13:53:48;;;;;;;1.45;1.17;;;;;;;;;;4991386;28;20190;-84
2022/07/31 13:56:53;;;;;;;2.28;1.20;;;;;;;;;;5005704;28;20190;-83
2022/07/31 13:59:57;;;;;;;2.40;1.10;;;;;;;;;;4995629;28;20202;-83
2022/07/31 14:03:02;;;;;;;2.00;1.15;;;;;;;;;;4995357;28;20182;-84
2022/07/31 14:06:06;;;;;;;3.17;1.30;;;;;;;;;;5006120;28;20202;-84
2022/07/31 14:09:10;;;;;;;1.67;1.45;;;;;;;;;;5005788;28;20182;-84
2022/07/31 14:12:14;;;;;;;1.42;1.33;;;;;;;;;;4982053;28;20226;-84
2022/07/31 14:15:18;;;;;;;1.83;1.20;;;;;;;;;;4995963;28;20183;-84
2022/07/31 14:18:22;;;;;;;3.05;1.10;;;;;;;;;;4995332;28;20178;-84
2022/07/31 14:21:26;;;;;;;1.77;1.40;;;;;;;;;;4995101;28;20213;-85
2022/07/31 14:24:31;;;;;;;1.55;1.30;;;;;;;;;;4996590;28;20174;-85
2022/07/31 14:27:37;;;;;;;2.42;1.30;;;;;;;;;;4995799;28;20206;-86
2022/07/31 14:30:45;;;;;;;4.40;1.40;;;;;;;;;;4995495;28;20218;-85
2022/07/31 14:33:49;;;;;;;2.53;1.23;;;;;;;;;;4996593;28;20202;-85
2022/07/31 14:36:53;;;;;;;5.30;1.20;;;;;;;;;;4984616;28;20510;-84
2022/07/31 14:39:57;;;;;;;4.15;1.48;;;;;;;;;;4999333;28;20175;-82
2022/07/31 14:43:02;;;;;;;1.90;1.58;;;;;;;;;;5011592;28;20178;-83
2022/07/31 14:46:06;;;;;;;1.83;1.23;;;;;;;;;;5011122;28;20171;-83
2022/07/31 14:49:11;;;;;;;2.28;1.30;;;;;;;;;;4988058;28;20625;-83
2022/07/31 14:52:15;;;;;;;2.55;1.27;;;;;;;;;;4997924;28;20227;-84
2022/07/31 14:55:21;;;;;;;2.20;1.30;;;;;;;;;;4978591;28;20191;-84
2022/07/31 14:58:26;;;;;;;4.40;1.40;;;;;;;;;;4987041;28;20637;-84
2022/07/31 15:01:30;;;;;;;4.38;1.65;;;;;;;;;;4998444;28;21159;-84
2022/07/31 15:04:34;;;;;;;1.80;1.20;;;;;;;;;;4997682;28;20187;-84
2022/07/31 15:07:38;;;;;;;1.98;1.50;;;;;;;;;;4995652;28;20211;-84
2022/07/31 15:10:42;;;;;;;2.28;1.42;;;;;;;;;;4972944;28;20226;-85
2022/07/31 15:13:46;;;;;;;2.03;1.38;;;;;;;;;;4986413;28;20187;-84
2022/07/31 15:16:51;;;;;;;1.30;1.20;;;;;;;;;;4987554;28;20565;-84
2022/07/31 15:19:55;;;;;;;4.97;1.15;;;;;;;;;;4987855;28;20187;-84
2022/07/31 15:23:00;;;;;;;1.40;1.20;;;;;;;;;;4995636;28;20199;-84
2022/07/31 15:26:05;;;;;;;1.65;1.55;;;;;;;;;;5000460;28;20642;-84
2022/07/31 15:29:10;;;;;;;2.50;1.20;;;;;;;;;;5002882;28;20207;-83
2022/07/31 15:32:15;;;;;;;1.83;1.17;;;;;;;;;;5002448;28;20701;-83
2022/07/31 15:35:19;;;;;;;2.80;1.33;;;;;;;;;;4978279;28;20188;-82
2022/07/31 15:38:23;;;;;;;1.38;1.20;;;;;;;;;;5009238;28;20179;-83
2022/07/31 15:41:27;;;;;;;2.15;1.10;;;;;;;;;;5012943;28;20225;-84
2022/07/31 15:44:32;;;;;;;2.35;1.10;;;;;;;;;;4990300;28;20183;-83
2022/07/31 15:47:37;;;;;;;3.17;1.40;;;;;;;;;;5012285;28;20209;-83
2022/07/31 15:50:41;;;;;;;5.22;1.58;;;;;;;;;;5000364;28;20225;-85
2022/07/31 15:53:45;;;;;;;2.90;1.50;;;;;;;;;;5011882;28;20522;-83
2022/07/31 15:56:49;;;;;;;4.70;1.33;;;;;;;;;;5001642;28;20186;-84
2022/07/31 15:59:54;;;;;;;1.40;1.20;;;;;;;;;;5000467;28;20179;-82
2022/07/31 16:02:58;;;;;;;2.85;1.15;;;;;;;;;;4999966;28;20553;-82
2022/07/31 16:06:02;;;;;;;1.83;1.20;;;;;;;;;;5000196;28;20205;-84
2022/07/31 16:09:07;;;;;;;11.32;10.32;;;;;;;;;;5010281;22;20233;-83
2022/07/31 16:12:11;;;;;;;18.02;14.35;;;;;;;;;;4998845;28;20227;-83
2022/07/31 16:15:16;;;;;;;582.88;487.35;;;;;;;;;;4991127;28;20189;-83
2022/07/31 16:18:20;;;;;;;55.35;37.22;;;;;;;;;;4989624;28;20757;-83
2022/07/31 16:21:24;;;;;;;17.53;3.60;;;;;;;;;;5000360;28;21317;-84
2022/07/31 16:24:28;;;;;;;9.35;2.33;;;;;;;;;;4989335;28;21240;-83
2022/07/31 16:27:33;;;;;;;5.95;3.70;;;;;;;;;;4989458;28;20281;-84
2022/07/31 16:30:37;;;;;;;8.25;7.40;;;;;;;;;;4991454;28;20225;-84
2022/07/31 16:33:41;;;;;;;30.25;15.73;;;;;;;;;;4991031;28;20181;-84
2022/07/31 16:36:46;;;;;;;33.33;16.50;;;;;;;;;;5001380;28;20196;-82
2022/07/31 16:39:52;;;;;;;229.23;142.25;;;;;;;;;;4992579;28;20192;-82
2022/07/31 16:42:59;;;;;;;56.17;28.65;;;;;;;;;;4974460;28;20203;-82
2022/07/31 16:46:03;;;;;;;293.52;127.32;;;;;;;;;;4990306;28;20197;-82
2022/07/31 16:49:07;;;;;;;550.13;357.92;;;;;;;;;;4984542;28;20221;-82
2022/07/31 16:52:15;;;;;;;463.77;317.05;;;;;;;;;;4990835;28;20236;-82
2022/07/31 16:55:21;;;;;;;40.80;22.85;;;;;;;;;;4977217;28;20208;-82
2022/07/31 16:58:26;;;;;;;47.08;32.53;;;;;;;;;;4999572;28;20200;-82
2022/07/31 17:01:31;;;;;;;5.72;2.67;;;;;;;;;;4976159;28;20235;-80
2022/07/31 17:04:35;;;;;;;2.33;1.55;;;;;;;;;;4990173;28;20201;-80
2022/07/31 17:07:39;;;;;;;3.35;1.63;;;;;;;;;;4991307;28;20200;-80
2022/07/31 17:10:43;;;;;;;1.35;1.20;;;;;;;;;;4989279;28;20246;-80
2022/07/31 17:13:47;;;;;;;1.70;1.20;;;;;;;;;;4965077;28;20204;-80
2022/07/31 17:16:53;;;;;;;3.00;1.40;;;;;;;;;;4981415;28;20660;-80
2022/07/31 17:19:57;;;;;;;2.30;1.30;;;;;;;;;;4995161;28;20193;-79
2022/07/31 17:23:03;;;;;;;3.88;1.27;;;;;;;;;;4991713;28;20205;-80
2022/07/31 17:26:08;;;;;;;4.47;1.38;;;;;;;;;;4999120;28;20188;-81
2022/07/31 17:29:12;;;;;;;3.30;1.63;;;;;;;;;;4999201;28;20234;-82
2022/07/31 17:32:17;;;;;;;1.67;1.15;;;;;;;;;;4974889;28;20694;-82
2022/07/31 17:35:21;;;;;;;3.38;1.40;;;;;;;;;;4985159;28;20192;-82
2022/07/31 17:38:28;;;;;;;2.75;1.40;;;;;;;;;;4986063;28;20197;-82
2022/07/31 17:41:32;;;;;;;2.83;1.20;;;;;;;;;;4990247;28;20219;-82
2022/07/31 17:44:38;;;;;;;3.45;1.23;;;;;;;;;;4967741;28;20192;-80
2022/07/31 17:47:42;;;;;;;1.58;1.40;;;;;;;;;;4976240;28;20199;-80
2022/07/31 17:50:46;;;;;;;3.70;1.17;;;;;;;;;;4996356;28;20221;-82
2022/07/31 17:53:51;;;;;;;3.05;1.40;;;;;;;;;;4997751;28;20510;-82
2022/07/31 17:56:55;;;;;;;1.10;1.00;;;;;;;;;;5000730;28;20180;-81
2022/07/31 18:00:00;;;;;;;3.55;1.33;;;;;;;;;;5001340;28;20183;-81
2022/07/31 18:03:04;;;;;;;4.38;1.40;;;;;;;;;;4999731;28;20186;-81
2022/07/31 18:06:08;;;;;;;1.90;1.25;;;;;;;;;;4979039;28;20185;-82
2022/07/31 18:09:15;;;;;;;1.70;1.60;;;;;;;;;;5004207;28;20232;-80
2022/07/31 18:12:19;;;;;;;1.35;1.25;;;;;;;;;;5001504;28;20223;-80
2022/07/31 18:15:23;;;;;;;1.15;1.08;;;;;;;;;;5018396;28;20183;-81
2022/07/31 18:18:28;;;;;;;3.72;1.33;;;;;;;;;;4992972;28;20635;-80
2022/07/31 18:21:33;;;;;;;2.65;1.42;;;;;;;;;;5007624;28;20220;-79
2022/07/31 18:24:37;;;;;;;1.52;1.33;;;;;;;;;;5004428;28;20182;-81
2022/07/31 18:27:41;;;;;;;2.03;1.52;;;;;;;;;;5004259;28;20179;-82
2022/07/31 18:30:45;;;;;;;1.85;1.40;;;;;;;;;;5004968;28;20220;-81
2022/07/31 18:33:49;;;;;;;1.90;1.38;;;;;;;;;;5017392;28;20180;-81
2022/07/31 18:36:54;;;;;;;3.72;1.35;;;;;;;;;;4994284;28;20187;-80
2022/07/31 18:39:59;;;;;;;3.42;1.33;;;;;;;;;;5004156;28;20183;-82
2022/07/31 18:43:04;;;;;;;1.90;1.30;;;;;;;;;;4994669;28;20188;-81
2022/07/31 18:46:09;;;;;;;2.28;1.33;;;;;;;;;;5003580;28;20640;-80
2022/07/31 18:49:13;;;;;;;2.20;1.35;;;;;;;;;;4989911;28;20214;-80
2022/07/31 18:52:17;;;;;;;1.50;1.40;;;;;;;;;;5012082;28;20226;-83
2022/07/31 18:55:22;;;;;;;2.73;1.20;;;;;;;;;;4976071;28;20181;-84
2022/07/31 18:58:26;;;;;;;7.03;1.50;;;;;;;;;;4987312;28;20176;-84